Time;durP1;ratioP1;P1;durP2;ratioP2;P2;SDS_P1;SDS_P2;PMS_P1;PMS_P2;Temp;Humidity;BMP_temperature;BMP_pressure;BME280_temperature;BME280_humidity;BME280_pressure;Samples;Min_cycle;Max_cycle;Signal;HPM_P1;HPM_P2
2021/10/31 00:00:23;;;;;;;;;;;;;;;11.39;52.69;100432.56;4365212;32;32245;-88
2021/10/31 00:02:51;;;;;;;;;;;;;;;11.30;52.84;100438.22;4352598;32;34346;-88
2021/10/31 00:05:18;;;;;;;;;;;;;;;11.25;52.88;100430.47;4366526;32;33919;-88
2021/10/31 00:07:46;;;;;;;;;;;;;;;11.12;53.12;100428.31;4364628;32;33564;-88
2021/10/31 00:10:15;;;;;;;;;;;;;;;11.09;53.05;100433.69;4377789;32;32993;-88
2021/10/31 00:12:42;;;;;;;;;;;;;;;10.92;53.98;100432.53;4364657;32;33814;-88
2021/10/31 00:15:12;;;;;;;;;;;;;;;10.83;53.69;100435.50;4363965;32;34240;-87
2021/10/31 00:17:40;;;;;;;;;;;;;;;10.31;55.69;100441.66;4363744;32;33790;-88
2021/10/31 00:20:07;;;;;;;;;;;;;;;10.29;56.03;100444.31;4363888;32;32159;-88
2021/10/31 00:22:35;;;;;;;;;;;;;;;10.22;55.74;100445.41;4377284;32;34916;-90
2021/10/31 00:25:03;;;;;;;;;;;;;;;9.75;57.14;100443.31;4364917;32;34872;-87
2021/10/31 00:27:31;;;;;;;;;;;;;;;9.98;56.59;100441.78;4352444;32;33526;-90
2021/10/31 00:29:58;;;;;;;;;;;;;;;10.07;56.13;100438.84;4376964;32;32962;-90
2021/10/31 00:32:26;;;;;;;;;;;;;;;10.05;56.19;100426.59;4352329;32;34583;-90
2021/10/31 00:34:54;;;;;;;;;;;;;;;9.99;56.36;100431.16;4364561;32;33066;-90
2021/10/31 00:37:21;;;;;;;;;;;;;;;9.85;56.42;100420.16;4364248;32;33821;-92
2021/10/31 00:39:51;;;;;;;;;;;;;;;9.79;56.76;100419.50;4365051;32;34328;-92
2021/10/31 00:42:21;;;;;;;;;;;;;;;9.67;56.68;100420.72;4352226;32;33181;-90
2021/10/31 00:44:48;;;;;;;;;;;;;;;9.72;57.00;100418.81;4377144;32;34217;-90
2021/10/31 00:47:16;;;;;;;;;;;;;;;9.60;57.01;100419.19;4377135;32;32433;-90
2021/10/31 00:49:43;;;;;;;;;;;;;;;9.66;56.94;100414.59;4364764;32;31904;-90
2021/10/31 00:52:10;;;;;;;;;;;;;;;9.47;57.99;100419.56;4352126;32;33329;-90
2021/10/31 00:54:44;;;;;;;;;;;;;;;9.25;58.73;100410.53;4364687;32;33257;-90
2021/10/31 00:57:11;;;;;;;;;;;;;;;9.34;58.46;100410.25;4364700;32;33089;-90
2021/10/31 00:59:39;;;;;;;;;;;;;;;9.36;58.17;100415.50;4352349;32;33245;-92
2021/10/31 01:02:12;;;;;;;;;;;;;;;9.40;57.46;100407.47;4377043;32;33426;-91
2021/10/31 01:04:41;;;;;;;;;;;;;;;8.74;59.74;100410.22;4375909;32;32959;-91
2021/10/31 01:07:19;;;;;;;;;;;;;;;9.11;58.93;100395.09;4377193;32;34176;-91
2021/10/31 01:09:50;;;;;;;;;;;;;;;8.52;61.37;100399.37;4363197;32;33692;-91
2021/10/31 01:12:27;;;;;;;;;;;;;;;8.69;60.95;100384.88;4376978;32;32572;-91
2021/10/31 01:15:03;;;;;;;;;;;;;;;8.77;61.48;100383.78;4376842;32;33518;-91
2021/10/31 01:17:31;;;;;;;;;;;;;;;8.96;61.87;100380.59;4377052;32;33047;-89
2021/10/31 01:20:10;;;;;;;;;;;;;;;8.86;61.97;100373.84;4376511;32;34626;-89
2021/10/31 01:22:44;;;;;;;;;;;;;;;9.02;62.59;100378.69;4376824;32;33360;-90
2021/10/31 01:25:11;;;;;;;;;;;;;;;9.12;62.08;100377.56;4381553;32;33199;-89
2021/10/31 01:27:45;;;;;;;;;;;;;;;8.75;62.57;100375.94;4377718;32;34414;-89
2021/10/31 01:30:19;;;;;;;;;;;;;;;9.04;61.90;100382.16;4365046;32;32152;-92
2021/10/31 01:32:55;;;;;;;;;;;;;;;9.08;61.63;100382.03;4375632;32;32872;-91
2021/10/31 01:35:43;;;;;;;;;;;;;;;9.14;62.16;100379.22;4371651;32;33425;-91
2021/10/31 01:38:15;;;;;;;;;;;;;;;9.31;61.11;100378.75;4367791;32;33696;-91
2021/10/31 01:40:55;;;;;;;;;;;;;;;8.91;61.87;100382.50;4375976;32;32032;-91
2021/10/31 01:43:28;;;;;;;;;;;;;;;9.13;62.24;100374.88;4372008;32;33005;-92
2021/10/31 01:46:01;;;;;;;;;;;;;;;9.07;62.37;100382.06;4376865;32;32640;-91
2021/10/31 01:48:48;;;;;;;;;;;;;;;9.32;62.09;100371.69;4364392;32;33639;-89
2021/10/31 01:51:21;;;;;;;;;;;;;;;9.18;62.23;100369.47;4376419;32;32628;-90
2021/10/31 01:53:54;;;;;;;;;;;;;;;9.48;60.88;100367.69;4364335;32;32706;-90
2021/10/31 01:56:22;;;;;;;;;;;;;;;9.37;61.43;100375.94;4364580;32;33180;-90
2021/10/31 01:59:10;;;;;;;;;;;;;;;8.98;61.03;100370.91;4376158;32;33184;-91
2021/10/31 02:01:38;;;;;;;;;;;;;;;9.12;60.99;100370.50;4376014;32;32626;-91
2021/10/31 02:04:08;;;;;;;;;;;;;;;9.03;60.72;100372.53;4352033;32;32998;-91
2021/10/31 02:06:37;;;;;;;;;;;;;;;9.22;60.50;100365.84;4366169;32;33110;-88
2021/10/31 02:09:04;;;;;;;;;;;;;;;9.19;60.85;100356.25;4363915;32;33059;-89
2021/10/31 02:11:33;;;;;;;;;;;;;;;9.43;60.19;100367.81;4363557;32;33406;-90
2021/10/31 02:14:00;;;;;;;;;;;;;;;9.19;61.01;100361.50;4364141;32;34152;-90
2021/10/31 02:16:28;;;;;;;;;;;;;;;9.14;61.24;100357.28;4374900;32;34447;-89
2021/10/31 02:19:04;;;;;;;;;;;;;;;8.96;62.27;100358.66;4351330;32;33551;-90
2021/10/31 02:21:32;;;;;;;;;;;;;;;9.33;61.68;100347.94;4375669;32;33296;-90
2021/10/31 02:24:03;;;;;;;;;;;;;;;9.40;61.73;100346.84;4364223;32;33815;-90
2021/10/31 02:26:30;;;;;;;;;;;;;;;9.33;61.65;100347.94;4375679;32;33397;-89
2021/10/31 02:28:59;;;;;;;;;;;;;;;9.35;62.45;100353.16;4364042;32;33465;-90
2021/10/31 02:31:27;;;;;;;;;;;;;;;9.58;61.90;100341.91;4376071;32;34022;-91
2021/10/31 02:33:57;;;;;;;;;;;;;;;9.61;62.19;100347.97;4363718;32;33270;-91
2021/10/31 02:36:24;;;;;;;;;;;;;;;9.63;62.40;100350.53;4362935;32;34552;-90
2021/10/31 02:38:52;;;;;;;;;;;;;;;9.65;62.75;100352.22;4350036;32;32928;-91
2021/10/31 02:41:19;;;;;;;;;;;;;;;9.43;64.10;100343.25;4351184;32;32354;-90
2021/10/31 02:43:47;;;;;;;;;;;;;;;9.43;64.36;100341.47;4374851;32;34416;-90
2021/10/31 02:46:15;;;;;;;;;;;;;;;9.63;63.69;100342.63;4351949;32;32859;-91
2021/10/31 02:48:42;;;;;;;;;;;;;;;9.76;63.34;100338.69;4363637;32;33233;-90
2021/10/31 02:51:26;;;;;;;;;;;;;;;9.51;64.00;100343.03;4351332;32;32168;-90
2021/10/31 02:53:56;;;;;;;;;;;;;;;9.70;62.91;100349.44;4375569;32;33976;-90
2021/10/31 02:56:28;;;;;;;;;;;;;;;10.12;61.54;100343.72;4373922;32;33129;-90
2021/10/31 02:58:57;;;;;;;;;;;;;;;10.22;60.87;100342.47;4375121;32;33876;-89
2021/10/31 03:01:24;;;;;;;;;;;;;;;10.36;59.34;100342.91;4375427;32;32609;-90
2021/10/31 03:03:54;;;;;;;;;;;;;;;10.34;58.81;100347.38;4350283;32;33032;-91
2021/10/31 03:06:23;;;;;;;;;;;;;;;10.15;59.70;100344.44;4375771;32;33059;-91
2021/10/31 03:08:52;;;;;;;;;;;;;;;9.78;61.31;100350.06;4363199;32;33879;-90
2021/10/31 03:11:19;;;;;;;;;;;;;;;9.94;61.06;100353.09;4363470;32;32501;-90
2021/10/31 03:13:47;;;;;;;;;;;;;;;9.71;61.73;100359.06;4374281;32;33348;-91
2021/10/31 03:16:15;;;;;;;;;;;;;;;9.21;62.79;100358.84;4375647;32;33785;-91
2021/10/31 03:18:42;;;;;;;;;;;;;;;9.51;61.69;100356.19;4375699;32;33781;-89
2021/10/31 03:21:14;;;;;;;;;;;;;;;9.37;61.40;100352.19;4361993;32;32184;-92
2021/10/31 03:23:41;;;;;;;;;;;;;;;9.49;61.27;100341.31;4373445;32;33042;-91
2021/10/31 03:26:09;;;;;;;;;;;;;;;9.46;60.41;100346.66;4360833;32;33340;-91
2021/10/31 03:28:38;;;;;;;;;;;;;;;9.28;60.85;100349.84;4363451;32;33300;-91
2021/10/31 03:31:05;;;;;;;;;;;;;;;9.43;60.68;100353.78;4375679;32;32250;-90
2021/10/31 03:33:33;;;;;;;;;;;;;;;9.34;62.32;100356.69;4375646;32;33453;-91
2021/10/31 03:36:01;;;;;;;;;;;;;;;9.12;62.65;100359.13;4374907;32;32909;-90
2021/10/31 03:38:31;;;;;;;;;;;;;;;9.13;62.17;100358.19;4360200;32;34615;-90
2021/10/31 03:41:07;;;;;;;;;;;;;;;9.09;62.08;100365.31;4350536;32;32747;-90
2021/10/31 03:43:36;;;;;;;;;;;;;;;9.19;61.52;100364.12;4363079;32;33124;-89
2021/10/31 03:46:03;;;;;;;;;;;;;;;9.14;61.11;100357.28;4338871;32;836478;-90
2021/10/31 03:48:31;;;;;;;;;;;;;;;9.17;60.62;100359.84;4380358;32;32981;-89
2021/10/31 03:51:01;;;;;;;;;;;;;;;8.90;61.38;100362.34;4372554;32;34089;-89
2021/10/31 03:53:29;;;;;;;;;;;;;;;9.09;60.44;100361.81;4351642;32;33352;-89
2021/10/31 03:55:56;;;;;;;;;;;;;;;8.91;60.43;100361.44;4366713;32;34260;-89
2021/10/31 03:58:24;;;;;;;;;;;;;;;9.10;59.80;100356.50;4384612;32;33863;-89
2021/10/31 04:00:52;;;;;;;;;;;;;;;8.73;61.70;100356.66;4364348;32;33108;-87
2021/10/31 04:03:20;;;;;;;;;;;;;;;8.73;62.78;100356.66;4367719;32;33852;-90
2021/10/31 04:05:47;;;;;;;;;;;;;;;8.72;63.35;100360.22;4377157;32;35084;-89
2021/10/31 04:08:14;;;;;;;;;;;;;;;8.88;63.73;100361.53;4353278;32;33316;-92
2021/10/31 04:10:43;;;;;;;;;;;;;;;9.12;63.61;100356.47;4365686;32;32841;-92
2021/10/31 04:13:11;;;;;;;;;;;;;;;9.13;64.07;100358.19;4365182;32;32762;-91
2021/10/31 04:15:41;;;;;;;;;;;;;;;9.17;63.86;100350.16;4363994;32;33613;-91
2021/10/31 04:18:09;;;;;;;;;;;;;;;9.23;64.14;100351.75;4369258;32;32709;-91
2021/10/31 04:20:37;;;;;;;;;;;;;;;9.23;63.62;100351.75;4377438;32;33111;-91
2021/10/31 04:23:05;;;;;;;;;;;;;;;9.18;63.71;100348.38;4376585;32;32474;-91
2021/10/31 04:25:32;;;;;;;;;;;;;;;8.70;62.73;100357.62;4364864;32;33412;-91
2021/10/31 04:28:00;;;;;;;;;;;;;;;8.53;63.89;100353.72;4352421;32;32876;-91
2021/10/31 04:30:27;;;;;;;;;;;;;;;8.54;63.25;100360.69;4377200;32;33458;-91
2021/10/31 04:32:55;;;;;;;;;;;;;;;8.26;63.51;100365.78;4364855;32;33411;-91
2021/10/31 04:35:23;;;;;;;;;;;;;;;8.50;62.62;100372.19;4364630;32;33066;-91
2021/10/31 04:37:52;;;;;;;;;;;;;;;8.54;62.21;100360.69;4364617;32;33068;-91
2021/10/31 04:40:23;;;;;;;;;;;;;;;8.43;62.11;100364.47;4363571;32;33560;-91
2021/10/31 04:42:53;;;;;;;;;;;;;;;8.52;62.62;100363.38;4364863;32;33808;-91
2021/10/31 04:45:21;;;;;;;;;;;;;;;8.52;63.55;100357.25;4377885;32;33936;-91
2021/10/31 04:47:51;;;;;;;;;;;;;;;8.46;62.48;100348.63;4377286;32;32754;-91
2021/10/31 04:50:18;;;;;;;;;;;;;;;8.51;63.04;100356.41;4373774;32;32581;-91
2021/10/31 04:52:46;;;;;;;;;;;;;;;8.43;64.06;100347.81;4373393;32;32931;-91
2021/10/31 04:55:14;;;;;;;;;;;;;;;8.50;63.16;100344.16;4373067;32;33070;-89
2021/10/31 04:57:41;;;;;;;;;;;;;;;8.40;63.75;100351.41;4359745;32;33116;-90
2021/10/31 05:00:09;;;;;;;;;;;;;;;8.23;64.21;100343.06;4373710;32;32486;-90
2021/10/31 05:02:37;;;;;;;;;;;;;;;8.34;64.53;100342.78;4373052;32;33339;-90
2021/10/31 05:05:05;;;;;;;;;;;;;;;8.26;65.08;100349.97;4374542;32;33124;-91
2021/10/31 05:07:33;;;;;;;;;;;;;;;8.20;65.57;100348.38;4359702;32;33372;-91
2021/10/31 05:10:00;;;;;;;;;;;;;;;8.42;64.93;100352.22;4362155;32;32001;-91
2021/10/31 05:12:30;;;;;;;;;;;;;;;8.39;64.94;100352.28;4361375;32;32975;-91
2021/10/31 05:14:57;;;;;;;;;;;;;;;8.31;64.35;100350.72;4374487;32;33226;-90
2021/10/31 05:17:25;;;;;;;;;;;;;;;8.33;65.54;100348.94;4360353;32;33451;-89
2021/10/31 05:19:54;;;;;;;;;;;;;;;8.41;64.59;100361.03;4362723;32;33601;-88
2021/10/31 05:22:21;;;;;;;;;;;;;;;8.20;64.29;100345.75;4375913;32;33259;-89
2021/10/31 05:24:49;;;;;;;;;;;;;;;8.28;64.76;100343.78;4378805;32;34110;-88
2021/10/31 05:27:16;;;;;;;;;;;;;;;8.36;64.66;100347.12;4373148;32;32681;-88
2021/10/31 05:29:43;;;;;;;;;;;;;;;8.72;63.66;100344.41;4374055;32;33086;-88
2021/10/31 05:32:11;;;;;;;;;;;;;;;8.70;63.51;100354.12;4362429;32;33513;-89
2021/10/31 05:34:39;;;;;;;;;;;;;;;8.35;62.95;100355.00;4362406;32;34014;-88
2021/10/31 05:37:06;;;;;;;;;;;;;;;8.29;62.92;100350.78;4376797;32;33925;-89
2021/10/31 05:39:34;;;;;;;;;;;;;;;8.30;62.98;100357.75;4349990;32;32103;-89
2021/10/31 05:42:01;;;;;;;;;;;;;;;8.13;64.50;100359.97;4362045;32;34074;-89
2021/10/31 05:44:29;;;;;;;;;;;;;;;8.09;65.45;100356.53;4361315;32;34675;-89
2021/10/31 05:46:58;;;;;;;;;;;;;;;8.11;65.42;100356.50;4381795;32;34517;-89
2021/10/31 05:49:25;;;;;;;;;;;;;;;8.18;65.37;100368.63;4378123;32;34084;-89
2021/10/31 05:51:53;;;;;;;;;;;;;;;8.25;64.99;100366.69;4377535;32;32549;-89
2021/10/31 05:54:20;;;;;;;;;;;;;;;8.28;64.97;100362.22;4362466;32;32874;-89
2021/10/31 05:56:47;;;;;;;;;;;;;;;8.18;64.74;100369.47;4375626;32;34684;-89
2021/10/31 05:59:15;;;;;;;;;;;;;;;8.20;65.28;100372.91;4363841;32;33057;-89
2021/10/31 06:01:43;;;;;;;;;;;;;;;8.67;63.98;100376.13;4356839;32;32782;-90
2021/10/31 06:04:11;;;;;;;;;;;;;;;8.62;64.29;100379.78;4367191;32;33663;-88
2021/10/31 06:06:39;;;;;;;;;;;;;;;7.95;65.44;100383.19;4368595;32;32400;-89
2021/10/31 06:09:07;;;;;;;;;;;;;;;8.26;64.64;100381.56;4353424;32;32216;-90
2021/10/31 06:11:36;;;;;;;;;;;;;;;8.28;64.88;100387.66;4369235;32;33811;-90
2021/10/31 06:14:04;;;;;;;;;;;;;;;8.45;64.53;100382.84;4369584;32;34447;-87
2021/10/31 06:16:31;;;;;;;;;;;;;;;8.57;64.03;100381.69;4371092;32;33522;-87
2021/10/31 06:18:59;;;;;;;;;;;;;;;8.44;64.52;100386.37;4354636;32;33262;-87
2021/10/31 06:21:26;;;;;;;;;;;;;;;8.38;65.94;100391.81;4373172;32;34222;-88
2021/10/31 06:23:53;;;;;;;;;;;;;;;8.60;65.76;100392.16;4353182;32;34011;-89
2021/10/31 06:26:21;;;;;;;;;;;;;;;8.65;66.08;100387.62;4369621;32;33640;-88
2021/10/31 06:28:49;;;;;;;;;;;;;;;8.79;65.94;100377.59;4355864;32;33026;-89
2021/10/31 06:31:16;;;;;;;;;;;;;;;8.96;65.68;100385.87;4354082;32;33931;-87
2021/10/31 06:33:45;;;;;;;;;;;;;;;8.81;66.42;100381.03;4342155;32;34365;-86
2021/10/31 06:36:13;;;;;;;;;;;;;;;8.96;66.60;100383.22;4366052;32;33652;-87
2021/10/31 06:38:41;;;;;;;;;;;;;;;9.09;66.86;100385.53;4363932;32;33595;-87
2021/10/31 06:41:09;;;;;;;;;;;;;;;9.04;67.47;100387.44;4367491;32;33805;-87
2021/10/31 06:43:37;;;;;;;;;;;;;;;9.08;67.89;100383.81;4366314;32;33385;-87
2021/10/31 06:46:05;;;;;;;;;;;;;;;8.98;68.91;100393.75;4369226;32;32993;-86
2021/10/31 06:48:33;;;;;;;;;;;;;;;9.57;67.09;100385.00;4358734;32;30543;-86
2021/10/31 06:51:00;;;;;;;;;;;;;;;9.61;66.96;100381.38;4368679;32;33167;-86
2021/10/31 06:53:31;;;;;;;;;;;;;;;9.75;66.78;100381.81;4372694;32;32988;-86
2021/10/31 06:56:00;;;;;;;;;;;;;;;9.73;66.74;100383.63;4357136;32;34492;-86
2021/10/31 06:58:27;;;;;;;;;;;;;;;9.30;68.17;100384.03;4364173;32;32183;-86
2021/10/31 07:00:55;;;;;;;;;;;;;;;9.71;67.32;100390.72;4357125;32;33325;-87
2021/10/31 07:03:23;;;;;;;;;;;;;;;9.87;66.87;100391.97;4369384;32;33814;-87
2021/10/31 07:05:52;;;;;;;;;;;;;;;10.03;66.38;100394.13;4368728;32;33352;-87
2021/10/31 07:08:19;;;;;;;;;;;;;;;10.14;66.03;100389.37;4345670;32;30231;-88
2021/10/31 07:10:47;;;;;;;;;;;;;;;10.52;64.58;100386.34;4345046;32;33441;-85
2021/10/31 07:13:14;;;;;;;;;;;;;;;10.78;63.62;100381.97;4359149;32;33671;-89
2021/10/31 07:15:42;;;;;;;;;;;;;;;10.69;63.98;100387.56;4371850;32;33420;-91
2021/10/31 07:18:10;;;;;;;;;;;;;;;10.81;63.57;100378.31;4358963;32;32109;-89
2021/10/31 07:20:37;;;;;;;;;;;;;;;10.62;64.29;100392.16;4369646;32;33133;-89
2021/10/31 07:23:04;;;;;;;;;;;;;;;11.01;63.12;100383.75;4358070;32;32881;-90
2021/10/31 07:25:33;;;;;;;;;;;;;;;10.65;64.13;100391.22;4367885;32;32811;-88
2021/10/31 07:28:00;;;;;;;;;;;;;;;10.81;63.89;100380.97;4369392;32;32277;-89
2021/10/31 07:30:28;;;;;;;;;;;;;;;10.88;64.33;100387.78;4359009;32;33545;-89
2021/10/31 07:32:57;;;;;;;;;;;;;;;10.67;64.99;100390.22;4371949;32;34925;-87
2021/10/31 07:35:24;;;;;;;;;;;;;;;11.10;64.04;100387.84;4372984;32;35773;-89
2021/10/31 07:37:53;;;;;;;;;;;;;;;11.05;63.44;100395.06;4344532;32;32084;-89
2021/10/31 07:40:22;;;;;;;;;;;;;;;11.02;63.59;100381.06;4357318;32;34233;-89
2021/10/31 07:42:54;;;;;;;;;;;;;;;11.14;63.80;100385.03;4368593;32;33426;-89
2021/10/31 07:45:40;;;;;;;;;;;;;;;11.33;62.51;100379.94;4372970;32;33465;-90
2021/10/31 07:48:08;;;;;;;;;;;;;;;11.41;62.83;100388.44;4357080;32;33033;-89
2021/10/31 07:50:37;;;;;;;;;;;;;;;11.24;63.35;100390.84;4347067;32;35516;-89
2021/10/31 07:53:05;;;;;;;;;;;;;;;11.38;62.34;100385.91;4359145;32;33060;-89
2021/10/31 07:55:34;;;;;;;;;;;;;;;11.81;61.03;100389.53;4357102;32;32484;-89
2021/10/31 07:58:03;;;;;;;;;;;;;;;11.59;62.74;100394.81;4359190;32;32095;-87
2021/10/31 08:00:33;;;;;;;;;;;;;;;11.75;61.10;100395.09;4372379;32;34295;-89
2021/10/31 08:03:01;;;;;;;;;;;;;;;11.94;60.51;100384.66;4345974;32;34087;-89
2021/10/31 08:05:29;;;;;;;;;;;;;;;11.64;61.84;100376.13;4357475;32;33170;-86
2021/10/31 08:07:58;;;;;;;;;;;;;;;12.05;60.81;100383.28;4356007;32;32361;-89
2021/10/31 08:10:25;;;;;;;;;;;;;;;11.75;61.03;100382.72;4367489;32;34803;-89
2021/10/31 08:12:53;;;;;;;;;;;;;;;11.53;61.65;100380.03;4358932;32;33217;-87
2021/10/31 08:15:21;;;;;;;;;;;;;;;11.72;61.69;100379.31;4357968;32;32911;-88
2021/10/31 08:17:49;;;;;;;;;;;;;;;12.39;59.63;100360.75;4370737;32;33397;-89
2021/10/31 08:20:16;;;;;;;;;;;;;;;11.65;61.55;100367.28;4368933;32;35111;-89
2021/10/31 08:22:44;;;;;;;;;;;;;;;11.70;62.14;100367.94;4358666;32;32994;-87
2021/10/31 08:25:12;;;;;;;;;;;;;;;12.10;60.59;100355.78;4371638;32;34947;-88
2021/10/31 08:27:39;;;;;;;;;;;;;;;12.10;60.72;100355.78;4361290;32;32185;-89
2021/10/31 08:30:07;;;;;;;;;;;;;;;12.46;59.30;100354.25;4350501;32;33218;-90
2021/10/31 08:32:40;;;;;;;;;;;;;;;12.53;59.29;100347.78;4353990;32;34020;-88
2021/10/31 08:35:08;;;;;;;;;;;;;;;12.70;58.80;100348.81;4348513;32;32846;-89
2021/10/31 08:37:35;;;;;;;;;;;;;;;12.88;57.98;100340.06;4373518;32;32542;-89
2021/10/31 08:40:04;;;;;;;;;;;;;;;12.76;58.90;100338.81;4371919;32;34117;-89
2021/10/31 08:42:31;;;;;;;;;;;;;;;12.77;59.05;100337.00;4360954;32;32933;-89
2021/10/31 08:44:59;;;;;;;;;;;;;;;12.95;57.87;100351.25;4372220;32;33527;-89
2021/10/31 08:47:26;;;;;;;;;;;;;;;13.11;57.89;100340.84;4360918;32;32932;-87
2021/10/31 08:49:53;;;;;;;;;;;;;;;13.14;58.56;100345.97;4353516;32;33070;-88
2021/10/31 08:52:21;;;;;;;;;;;;;;;13.16;57.24;100341.47;4369972;32;33485;-88
2021/10/31 08:54:48;;;;;;;;;;;;;;;13.30;58.18;100349.69;4365432;32;32687;-88
2021/10/31 08:57:16;;;;;;;;;;;;;;;13.39;57.58;100340.41;4375877;32;32086;-89
2021/10/31 08:59:44;;;;;;;;;;;;;;;13.71;57.35;100342.41;4364350;32;34091;-89
2021/10/31 09:02:11;;;;;;;;;;;;;;;13.72;56.40;100348.59;4376430;32;33099;-89
2021/10/31 09:04:39;;;;;;;;;;;;;;;13.97;56.58;100340.31;4363910;32;34848;-89
2021/10/31 09:07:10;;;;;;;;;;;;;;;14.32;54.88;100338.53;4358339;32;32070;-89
2021/10/31 09:09:37;;;;;;;;;;;;;;;14.43;55.12;100341.53;4362878;32;34704;-89
2021/10/31 09:12:05;;;;;;;;;;;;;;;14.52;54.70;100330.44;4351989;32;33318;-89
2021/10/31 09:14:33;;;;;;;;;;;;;;;14.52;54.15;100314.50;4376912;32;33941;-89
2021/10/31 09:17:01;;;;;;;;;;;;;;;14.41;54.58;100319.47;4374370;32;33064;-89
2021/10/31 09:19:28;;;;;;;;;;;;;;;14.78;52.91;100317.63;4376704;32;34061;-89
2021/10/31 09:21:55;;;;;;;;;;;;;;;14.89;53.55;100317.88;4367306;32;34437;-87
2021/10/31 09:24:23;;;;;;;;;;;;;;;15.05;52.89;100305.50;4358887;32;33825;-89
2021/10/31 09:26:51;;;;;;;;;;;;;;;15.01;52.60;100314.59;4359605;32;33587;-90
2021/10/31 09:29:19;;;;;;;;;;;;;;;15.13;51.62;100309.53;4360516;32;34631;-89
2021/10/31 09:31:46;;;;;;;;;;;;;;;14.99;52.51;100303.16;4362313;32;34048;-89
2021/10/31 09:34:13;;;;;;;;;;;;;;;15.54;51.22;100297.47;4360233;32;32288;-89
2021/10/31 09:36:41;;;;;;;;;;;;;;;14.77;52.59;100305.28;4361586;32;32491;-89
2021/10/31 09:39:09;;;;;;;;;;;;;;;14.98;53.42;100304.09;4361466;32;33749;-89
2021/10/31 09:41:36;;;;;;;;;;;;;;;14.82;52.75;100305.88;4361295;32;33578;-89
2021/10/31 09:44:15;;;;;;;;;;;;;;;14.98;52.72;100296.12;4360748;32;33561;-89
2021/10/31 09:46:44;;;;;;;;;;;;;;;15.27;50.88;100302.50;4360164;32;32442;-89
2021/10/31 09:49:12;;;;;;;;;;;;;;;14.87;53.28;100297.66;4358740;32;32864;-90
2021/10/31 09:51:40;;;;;;;;;;;;;;;15.44;51.52;100288.28;4359484;32;33680;-89
2021/10/31 09:54:08;;;;;;;;;;;;;;;16.05;49.30;100279.47;4360795;32;33745;-89
2021/10/31 09:56:36;;;;;;;;;;;;;;;16.10;48.71;100287.19;4360187;32;32163;-89
2021/10/31 09:59:04;;;;;;;;;;;;;;;15.78;49.28;100275.75;4358858;32;33785;-89
2021/10/31 10:01:39;;;;;;;;;;;;;;;15.60;49.82;100278.47;4361372;32;33918;-89
2021/10/31 10:04:07;;;;;;;;;;;;;;;15.74;50.92;100274.22;4347766;32;34834;-89
2021/10/31 10:06:38;;;;;;;;;;;;;;;16.03;49.06;100276.03;4360745;32;33323;-89
2021/10/31 10:09:09;;;;;;;;;;;;;;;15.89;50.14;100273.31;4358885;32;34369;-89
2021/10/31 10:11:38;;;;;;;;;;;;;;;16.25;49.75;100270.31;4361315;32;34165;-89
2021/10/31 10:14:06;;;;;;;;;;;;;;;16.44;47.79;100262.06;4361638;32;33447;-89
2021/10/31 10:16:34;;;;;;;;;;;;;;;16.29;47.32;100261.19;4360647;32;33905;-89
2021/10/31 10:19:09;;;;;;;;;;;;;;;16.07;48.73;100253.59;4361396;32;32427;-88
2021/10/31 10:21:37;;;;;;;;;;;;;;;16.43;46.98;100257.69;4369838;32;33471;-90
2021/10/31 10:24:09;;;;;;;;;;;;;;;16.50;49.29;100247.50;4373344;32;32729;-89
2021/10/31 10:26:38;;;;;;;;;;;;;;;16.23;48.78;100244.69;4362205;32;31982;-89
2021/10/31 10:29:16;;;;;;;;;;;;;;;16.56;47.33;100237.31;4363741;32;33257;-88
2021/10/31 10:31:45;;;;;;;;;;;;;;;16.99;46.85;100228.47;4363368;32;34054;-90
2021/10/31 10:34:13;;;;;;;;;;;;;;;17.13;46.08;100231.97;4373785;32;33791;-89
2021/10/31 10:36:40;;;;;;;;;;;;;;;16.92;44.90;100228.00;4363507;32;32962;-89
2021/10/31 10:39:09;;;;;;;;;;;;;;;16.98;45.08;100219.59;4375636;32;33479;-89
2021/10/31 10:41:48;;;;;;;;;;;;;;;16.83;45.32;100224.09;4362857;32;34238;-90
2021/10/31 10:44:20;;;;;;;;;;;;;;;17.12;45.43;100216.91;4363747;32;34833;-90
2021/10/31 10:46:49;;;;;;;;;;;;;;;17.06;45.00;100211.97;4376418;32;32945;-89
2021/10/31 10:49:18;;;;;;;;;;;;;;;16.75;45.37;100205.06;4351000;32;33412;-90
2021/10/31 10:52:06;;;;;;;;;;;;;;;17.26;45.21;100201.84;4363792;32;33522;-89
2021/10/31 10:54:34;;;;;;;;;;;;;;;17.00;44.36;100208.88;4350697;32;33311;-87
2021/10/31 10:57:02;;;;;;;;;;;;;;;17.61;44.19;100205.72;4375718;32;32983;-88
2021/10/31 10:59:30;;;;;;;;;;;;;;;17.86;43.44;100188.09;4365636;32;33861;-90
2021/10/31 11:02:10;;;;;;;;;;;;;;;17.62;43.41;100195.91;4363368;32;34155;-89
2021/10/31 11:04:39;;;;;;;;;;;;;;;17.89;42.26;100186.03;4377535;32;33876;-89
2021/10/31 11:07:07;;;;;;;;;;;;;;;18.06;42.18;100184.91;4365161;32;33391;-89
2021/10/31 11:09:45;;;;;;;;;;;;;;;17.66;42.42;100176.91;4364236;32;33462;-90
2021/10/31 11:12:32;;;;;;;;;;;;;;;17.63;43.51;100177.09;4364722;32;32981;-90
2021/10/31 11:15:20;;;;;;;;;;;;;;;18.26;41.65;100175.50;4365312;32;33783;-89
2021/10/31 11:17:49;;;;;;;;;;;;;;;18.27;41.47;100165.66;4385502;32;31944;-89
2021/10/31 11:20:20;;;;;;;;;;;;;;;18.08;41.49;100150.91;4376499;32;33156;-89
2021/10/31 11:22:50;;;;;;;;;;;;;;;18.26;41.28;100150.59;4376694;32;34319;-90
2021/10/31 11:25:19;;;;;;;;;;;;;;;18.30;40.82;100154.75;4362859;32;33951;-89
2021/10/31 11:27:47;;;;;;;;;;;;;;;17.80;41.88;100154.63;4382145;32;32967;-88
2021/10/31 11:30:15;;;;;;;;;;;;;;;17.61;41.98;100140.75;4360518;32;32943;-89
2021/10/31 11:32:43;;;;;;;;;;;;;;;17.75;41.37;100134.50;4365187;32;33841;-89
2021/10/31 11:35:11;;;;;;;;;;;;;;;18.26;40.92;100126.53;4362870;32;33484;-89
2021/10/31 11:37:52;;;;;;;;;;;;;;;18.01;40.38;100138.94;4375798;32;32981;-89
2021/10/31 11:40:19;;;;;;;;;;;;;;;18.05;41.29;100126.22;4375766;32;34138;-89
2021/10/31 11:42:47;;;;;;;;;;;;;;;18.59;40.54;100123.28;4363834;32;34170;-89
2021/10/31 11:45:16;;;;;;;;;;;;;;;18.81;40.17;100111.94;4367886;32;33260;-89
2021/10/31 11:47:45;;;;;;;;;;;;;;;18.82;39.25;100113.62;4352681;32;33439;-89
2021/10/31 11:50:13;;;;;;;;;;;;;;;18.79;39.38;100114.69;4364334;32;32996;-89
2021/10/31 11:52:40;;;;;;;;;;;;;;;18.53;39.46;100119.25;4377060;32;33266;-89
2021/10/31 11:55:28;;;;;;;;;;;;;;;18.37;40.60;100113.25;4374734;32;34347;-90
2021/10/31 11:58:07;;;;;;;;;;;;;;;18.48;39.96;100105.34;4371292;32;32216;-90
2021/10/31 12:00:47;;;;;;;;;;;;;;;18.40;40.89;100099.69;4374440;32;34361;-89
2021/10/31 12:03:35;;;;;;;;;;;;;;;18.47;40.73;100092.94;4351479;32;33437;-89
2021/10/31 12:06:15;;;;;;;;;;;;;;;18.26;40.70;100100.66;4381419;32;33958;-89
2021/10/31 12:08:43;;;;;;;;;;;;;;;18.51;40.17;100089.06;4376474;32;33046;-89
2021/10/31 12:11:12;;;;;;;;;;;;;;;18.57;39.99;100085.13;4375356;32;33419;-89
2021/10/31 12:13:46;;;;;;;;;;;;;;;18.65;40.07;100083.56;4352263;32;33090;-89
2021/10/31 12:16:15;;;;;;;;;;;;;;;18.61;39.49;100090.12;4374514;32;33072;-89
2021/10/31 12:19:06;;;;;;;;;;;;;;;18.31;40.21;100084.28;4352028;32;32071;-89
2021/10/31 12:21:37;;;;;;;;;;;;;;;18.70;38.78;100075.25;4371295;32;33693;-89
2021/10/31 12:24:05;;;;;;;;;;;;;;;18.16;40.20;100063.03;4374825;32;33828;-89
2021/10/31 12:26:45;;;;;;;;;;;;;;;18.99;38.14;100051.72;4377345;32;33579;-89
2021/10/31 12:29:14;;;;;;;;;;;;;;;18.49;39.15;100064.25;4374723;32;33770;-89
2021/10/31 12:31:54;;;;;;;;;;;;;;;18.39;39.50;100063.22;4363523;32;33413;-89
2021/10/31 12:34:34;;;;;;;;;;;;;;;18.37;40.09;100054.44;4377159;32;34682;-89
2021/10/31 12:37:03;;;;;;;;;;;;;;;18.84;38.75;100042.97;4362232;32;34474;-90
2021/10/31 12:39:32;;;;;;;;;;;;;;;18.64;39.35;100046.25;4363977;32;32826;-89
2021/10/31 12:42:12;;;;;;;;;;;;;;;18.62;39.75;100042.84;4378101;32;33559;-89
2021/10/31 12:44:42;;;;;;;;;;;;;;;18.68;38.95;100037.91;4364259;32;33575;-89
2021/10/31 12:47:13;;;;;;;;;;;;;;;18.13;40.69;100035.66;4363827;32;32760;-90
2021/10/31 12:49:41;;;;;;;;;;;;;;;17.84;40.07;100041.25;4362343;32;32519;-89
2021/10/31 12:52:20;;;;;;;;;;;;;;;18.11;39.45;100035.78;4376604;32;33522;-89